Latest Coastal Weather Observations for Frankston

IDV60701

Issued at 10:21 am EST Wednesday 31 August 2016 (issued every 10 minutes, with the page automatically refreshed every 10 minutes)

About coastal observations | Map of coastal stations | Coastal observations for VIC | Marine services | Other Formats
Station Details ID: 086371 Name: FRANKSTON AWS Lat: -38.15 Lon: 145.12 Height: 6.0 m
Data from the previous 72 hours. | See also: Recent months at Frankston
Date/Time
EST
Temp
°C
Wind Pressure Rain since
9am
mm
Weather Cloud Vis
km
Sea
Height
m
Swell
Dir  Spd
kts
Gust
kts
hPa Trend Height
m
Period
s
Dir
31/10:00am 13.8 NNW 8 10 - - - - - - - - - -
31/09:30am 14.2 NNW 8 11 - - - - - - - - - -
31/09:00am 13.3 NNW 2 3 - - - - - - - - - -
31/08:30am 14.0 N 4 5 - - - - - - - - - -
31/08:00am 14.4 NNE 4 7 - - - - - - - - - -
31/07:30am 13.2 ENE 2 4 - - - - - - - - - -
31/07:00am 12.8 E 2 4 - - - - - - - - - -
31/06:30am 13.0 NE 2 4 - - - - - - - - - -
31/06:00am 13.1 ENE 2 3 - - - - - - - - - -
31/05:30am 13.2 NNE 3 5 - - - - - - - - - -
31/05:00am 13.3 N 7 9 - - - - - - - - - -
31/04:30am 13.2 N 7 8 - - - - - - - - - -
31/04:00am 13.4 N 7 10 - - - - - - - - - -
31/03:30am 13.6 N 8 10 - - - - - - - - - -
31/03:00am 13.6 N 8 9 - - - - - - - - - -
31/02:30am 13.7 N 9 10 - - - - - - - - - -
31/02:00am 13.5 N 5 7 - - - - - - - - - -
31/01:30am 13.4 NE 3 5 - - - - - - - - - -
31/01:00am 13.5 NE 3 4 - - - - - - - - - -
31/12:30am 13.3 NE 2 5 - - - - - - - - - -
31/12:00am 13.2 NE 4 5 - - - - - - - - - -
 
Date/Time
EST
Temp
°C
Wind Pressure Rain since
9am
mm
Weather Cloud Vis
km
Sea
Height
m
Swell
Dir  Spd
kts
Gust
kts
hPa Trend Height
m
Period
s
Dir
30/11:30pm 13.1 NNE 4 5 - - - - - - - - - -
30/11:00pm 13.1 N 5 7 - - - - - - - - - -
30/10:30pm 13.1 N 5 6 - - - - - - - - - -
30/10:00pm 13.9 N 9 12 - - - - - - - - - -
30/09:30pm 14.2 NNE 10 12 - - - - - - - - - -
30/09:00pm 14.5 NNE 7 9 - - - - - - - - - -
30/08:30pm 14.9 NNE 12 17 - - - - - - - - - -
30/08:00pm 15.3 NNE 11 15 - - - - - - - - - -
30/07:30pm 15.6 NE 9 16 - - - - - - - - - -
30/07:00pm 15.5 NNE 14 22 - - - - - - - - - -
30/06:30pm 15.4 NNE 9 14 - - - - - - - - - -
30/06:00pm 15.4 NNE 10 16 - - - - - - - - - -
30/05:30pm 15.4 NNE 7 13 - - - - - - - - - -
30/05:00pm 14.7 NE 7 10 - - - - - - - - - -
30/04:30pm 15.2 NNE 12 17 - - - - - - - - - -
30/04:00pm 16.2 NE 10 15 - - - - - - - - - -
30/03:30pm 15.8 NE 7 12 - - - - - - - - - -
30/03:00pm 15.7 NE 9 15 - - - - - - - - - -
30/02:30pm 15.9 NE 9 16 - - - - - - - - - -
30/02:00pm 15.9 NE 9 13 - - - - - - - - - -
30/01:30pm 15.9 NE 7 13 - - - - - - - - - -
30/01:00pm 15.3 ENE 5 8 - - - - - - - - - -
30/12:30pm 14.2 ENE 3 8 - - - - - - - - - -
30/12:00pm 13.5 ENE 3 5 - - - - - - - - - -
30/11:30am 13.3 NE 5 10 - - - - - - - - - -
30/11:00am 14.0 NE 9 15 - - - - - - - - - -
30/10:30am 15.1 NNE 9 13 - - - - - - - - - -
30/10:00am 15.1 ENE 4 7 - - - - - - - - - -
30/09:30am 15.0 E 4 7 - - - - - - - - - -
30/09:00am 14.7 E 4 6 - - - - - - - - - -
30/08:30am 13.8 E 5 7 - - - - - - - - - -
30/08:00am 13.9 ENE 4 7 - - - - - - - - - -
30/07:30am 13.2 E 5 7 - - - - - - - - - -
30/07:00am 13.6 E 6 8 - - - - - - - - - -
30/06:30am 13.7 E 5 6 - - - - - - - - - -
30/06:00am 13.5 ENE 4 7 - - - - - - - - - -
30/05:30am 13.5 ENE 4 7 - - - - - - - - - -
30/05:00am 13.1 E 4 6 - - - - - - - - - -
30/04:30am 12.8 E 5 7 - - - - - - - - - -
30/04:00am 12.8 ESE 3 4 - - - - - - - - - -
30/03:30am 12.5 E 3 5 - - - - - - - - - -
30/03:00am 12.4 E 5 7 - - - - - - - - - -
30/02:30am 12.4 ESE 5 6 - - - - - - - - - -
30/02:00am 12.4 ESE 4 6 - - - - - - - - - -
30/01:30am 12.0 ESE 5 6 - - - - - - - - - -
30/01:00am 12.4 ESE 5 7 - - - - - - - - - -
30/12:30am 12.5 ESE 4 7 - - - - - - - - - -
30/12:00am 13.0 ESE 5 7 - - - - - - - - - -
 
Date/Time
EST
Temp
°C
Wind Pressure Rain since
9am
mm
Weather Cloud Vis
km
Sea
Height
m
Swell
Dir  Spd
kts
Gust
kts
hPa Trend Height
m
Period
s
Dir
29/11:30pm 12.9 SE 4 6 - - - - - - - - - -
29/11:00pm 12.8 SE 4 7 - - - - - - - - - -
29/10:30pm 13.4 ESE 2 3 - - - - - - - - - -
29/10:00pm 14.2 NE 3 5 - - - - - - - - - -
29/09:30pm 13.7 ESE 3 5 - - - - - - - - - -
29/09:00pm 14.1 E 4 6 - - - - - - - - - -
29/08:30pm 14.7 E 5 8 - - - - - - - - - -
29/08:00pm 15.0 ESE 5 6 - - - - - - - - - -
29/07:30pm 15.6 NE 4 5 - - - - - - - - - -
29/07:00pm 16.0 NNE 5 7 - - - - - - - - - -
29/06:30pm 16.7 NE 5 7 - - - - - - - - - -
29/06:00pm 17.2 NNE 5 8 - - - - - - - - - -
29/05:30pm 17.9 NNE 9 13 - - - - - - - - - -
29/05:00pm 18.4 NNE 9 14 - - - - - - - - - -
29/04:30pm 18.1 NNE 8 13 - - - - - - - - - -
29/04:00pm 18.7 NNE 7 12 - - - - - - - - - -
29/03:30pm 17.4 N 8 11 - - - - - - - - - -
29/03:00pm 17.7 N 10 14 - - - - - - - - - -
29/02:30pm 17.0 N 9 12 - - - - - - - - - -
29/02:00pm 15.7 N 5 7 - - - - - - - - - -
29/01:30pm 15.9 N 3 4 - - - - - - - - - -
29/01:00pm 15.4 NNW 6 8 - - - - - - - - - -
29/12:30pm 15.0 NNW 3 6 - - - - - - - - - -
29/12:00pm 15.4 NNW 4 5 - - - - - - - - - -
29/11:30am 15.8 N 6 9 - - - - - - - - - -
29/11:00am 14.1 NNW 1 4 - - - - - - - - - -
29/10:30am 14.1 NNW 2 4 - - - - - - - - - -
29/10:00am 14.3 N 5 7 - - - - - - - - - -
29/09:30am 14.1 NNE 4 7 - - - - - - - - - -
29/09:00am 13.6 NNE 3 5 - - - - - - - - - -
29/08:30am 13.6 ENE 1 3 - - - - - - - - - -
29/08:00am 12.8 E 2 3 - - - - - - - - - -
29/07:30am 12.0 ESE 2 3 - - - - - - - - - -
29/07:00am 10.7 ESE 2 3 - - - - - - - - - -
29/06:30am 10.8 ESE 2 2 - - - - - - - - - -
29/06:00am 10.0 SE 1 3 - - - - - - - - - -
29/05:30am 11.4 CALM 0 0 - - - - - - - - - -
29/05:00am 11.5 CALM 0 0 - - - - - - - - - -
29/04:30am 11.5 CALM 0 0 - - - - - - - - - -
29/04:00am 11.3 ENE 2 3 - - - - - - - - - -
29/03:30am 11.4 E 2 2 - - - - - - - - - -
29/03:00am 11.6 ENE 2 3 - - - - - - - - - -
29/02:30am 11.7 E 2 3 - - - - - - - - - -
29/02:00am 12.0 NNE 1 3 - - - - - - - - - -
29/01:30am 11.9 CALM 0 0 - - - - - - - - - -
29/01:00am 12.2 CALM 0 0 - - - - - - - - - -
29/12:30am 12.2 CALM 0 1 - - - - - - - - - -
29/12:00am 12.0 CALM 0 0 - - - - - - - - - -
 
Date/Time
EST
Temp
°C
Wind Pressure Rain since
9am
mm
Weather Cloud Vis
km
Sea
Height
m
Swell
Dir  Spd
kts
Gust
kts
hPa Trend Height
m
Period
s
Dir
28/11:30pm 12.2 NE 1 2 - - - - - - - - - -
28/11:00pm 12.4 ENE 2 3 - - - - - - - - - -
28/10:30pm 12.5 NE 3 4 - - - - - - - - - -
28/10:00pm 12.4 NE 1 2 - - - - - - - - - -
28/09:30pm 12.8 N 5 7 - - - - - - - - - -
28/09:00pm 13.2 N 7 9 - - - - - - - - - -
28/08:30pm 13.5 NE 4 7 - - - - - - - - - -
28/08:00pm 13.9 NE 3 5 - - - - - - - - - -
28/07:30pm 14.1 NE 4 6 - - - - - - - - - -
28/07:00pm 14.9 NE 3 5 - - - - - - - - - -
28/06:30pm 15.1 NE 3 4 - - - - - - - - - -
28/06:00pm 14.7 NNE 4 5 - - - - - - - - - -
28/05:30pm 14.8 CALM 0 0 - - - - - - - - - -
28/05:00pm 15.3 CALM 0 0 - - - - - - - - - -
28/04:30pm 15.7 N 1 2 - - - - - - - - - -
28/04:00pm 15.2 CALM 0 0 - - - - - - - - - -
28/03:30pm 15.0 NNW 2 3 - - - - - - - - - -
28/03:00pm 14.9 WSW 2 3 - - - - - - - - - -
28/02:30pm 14.5 WSW 2 2 - - - - - - - - - -
28/02:00pm 14.0 CALM 0 0 - - - - - - - - - -
28/01:30pm 13.9 W 1 2 - - - - - - - - - -
28/01:00pm 13.4 NW 1 2 - - - - - - - - - -
28/12:30pm 12.6 NNW 3 4 - - - - - - - - - -
28/12:00pm 12.3 NNW 5 6 - - - - - - - - - -
28/11:30am 12.3 N 5 7 - - - - - - - - - -
28/11:00am 12.2 N 6 8 - - - - - - - - - -
28/10:30am 12.1 N 6 8 - - - - - - - - - -

Other Formats:

Comma delimited format used in spreadsheet applications
http://www.bom.gov.au/fwo/IDV60701/IDV60701.94871.axf

JavaScript Object Notation format (JSON) in row-major order
http://www.bom.gov.au/fwo/IDV60701/IDV60701.94871.json